sensor_id;sensor_type;location;lat;lon;timestamp;P1;durP1;ratioP1;P2;durP2;ratioP2
42590;SDS011;28218;53.342;-6.216;2023-04-24T00:00:01;23.83;;;13.25;;
42590;SDS011;28218;53.342;-6.216;2023-04-24T00:02:32;18.60;;;12.30;;
42590;SDS011;28218;53.342;-6.216;2023-04-24T00:05:01;25.67;;;13.35;;
42590;SDS011;28218;53.342;-6.216;2023-04-24T00:07:30;19.48;;;12.50;;
42590;SDS011;28218;53.342;-6.216;2023-04-24T00:09:58;21.60;;;11.65;;
42590;SDS011;28218;53.342;-6.216;2023-04-24T00:12:28;17.60;;;11.35;;
42590;SDS011;28218;53.342;-6.216;2023-04-24T00:14:56;17.85;;;12.57;;
42590;SDS011;28218;53.342;-6.216;2023-04-24T00:17:25;19.58;;;11.25;;
42590;SDS011;28218;53.342;-6.216;2023-04-24T00:19:53;14.98;;;10.85;;
42590;SDS011;28218;53.342;-6.216;2023-04-24T00:24:53;16.77;;;11.57;;
42590;SDS011;28218;53.342;-6.216;2023-04-24T00:27:21;20.35;;;11.43;;
42590;SDS011;28218;53.342;-6.216;2023-04-24T00:29:51;20.13;;;12.35;;
42590;SDS011;28218;53.342;-6.216;2023-04-24T00:32:19;17.70;;;11.43;;
42590;SDS011;28218;53.342;-6.216;2023-04-24T00:34:48;15.77;;;10.00;;
42590;SDS011;28218;53.342;-6.216;2023-04-24T00:37:17;16.75;;;10.95;;
42590;SDS011;28218;53.342;-6.216;2023-04-24T00:39:45;18.33;;;10.40;;
42590;SDS011;28218;53.342;-6.216;2023-04-24T00:42:13;14.68;;;10.38;;
42590;SDS011;28218;53.342;-6.216;2023-04-24T00:44:42;15.70;;;9.40;;
42590;SDS011;28218;53.342;-6.216;2023-04-24T00:47:12;18.75;;;8.70;;
42590;SDS011;28218;53.342;-6.216;2023-04-24T00:49:41;15.60;;;8.45;;
42590;SDS011;28218;53.342;-6.216;2023-04-24T00:52:09;14.80;;;8.77;;
42590;SDS011;28218;53.342;-6.216;2023-04-24T00:54:39;14.30;;;8.27;;
42590;SDS011;28218;53.342;-6.216;2023-04-24T00:57:07;17.48;;;8.05;;
42590;SDS011;28218;53.342;-6.216;2023-04-24T00:59:36;14.35;;;7.80;;
42590;SDS011;28218;53.342;-6.216;2023-04-24T01:02:05;20.23;;;9.95;;
42590;SDS011;28218;53.342;-6.216;2023-04-24T01:04:35;10.68;;;6.60;;
42590;SDS011;28218;53.342;-6.216;2023-04-24T01:07:04;13.77;;;7.43;;
42590;SDS011;28218;53.342;-6.216;2023-04-24T01:09:36;9.80;;;6.72;;
42590;SDS011;28218;53.342;-6.216;2023-04-24T01:12:05;10.27;;;6.22;;
42590;SDS011;28218;53.342;-6.216;2023-04-24T01:14:34;11.80;;;5.90;;
42590;SDS011;28218;53.342;-6.216;2023-04-24T01:17:02;10.82;;;6.57;;
42590;SDS011;28218;53.342;-6.216;2023-04-24T01:19:31;18.40;;;6.55;;
42590;SDS011;28218;53.342;-6.216;2023-04-24T01:22:01;14.43;;;7.13;;
42590;SDS011;28218;53.342;-6.216;2023-04-24T01:24:32;14.15;;;5.50;;
42590;SDS011;28218;53.342;-6.216;2023-04-24T01:27:00;14.63;;;6.30;;
42590;SDS011;28218;53.342;-6.216;2023-04-24T01:29:28;11.52;;;6.25;;
42590;SDS011;28218;53.342;-6.216;2023-04-24T01:31:56;12.27;;;6.25;;
42590;SDS011;28218;53.342;-6.216;2023-04-24T01:34:25;11.07;;;5.88;;
42590;SDS011;28218;53.342;-6.216;2023-04-24T01:36:53;12.98;;;6.13;;
42590;SDS011;28218;53.342;-6.216;2023-04-24T01:39:22;11.68;;;6.18;;
42590;SDS011;28218;53.342;-6.216;2023-04-24T01:41:53;11.18;;;6.65;;
42590;SDS011;28218;53.342;-6.216;2023-04-24T01:44:22;10.80;;;5.82;;
42590;SDS011;28218;53.342;-6.216;2023-04-24T01:46:50;10.63;;;6.03;;
42590;SDS011;28218;53.342;-6.216;2023-04-24T01:49:20;11.77;;;5.40;;
42590;SDS011;28218;53.342;-6.216;2023-04-24T01:51:49;13.52;;;5.63;;
42590;SDS011;28218;53.342;-6.216;2023-04-24T01:54:17;13.25;;;5.60;;
42590;SDS011;28218;53.342;-6.216;2023-04-24T01:56:46;9.90;;;5.18;;
42590;SDS011;28218;53.342;-6.216;2023-04-24T01:59:15;9.95;;;5.45;;
42590;SDS011;28218;53.342;-6.216;2023-04-24T02:01:45;7.90;;;5.00;;
42590;SDS011;28218;53.342;-6.216;2023-04-24T02:04:14;11.05;;;5.07;;
42590;SDS011;28218;53.342;-6.216;2023-04-24T02:06:42;9.40;;;5.45;;
42590;SDS011;28218;53.342;-6.216;2023-04-24T02:09:10;11.55;;;4.50;;
42590;SDS011;28218;53.342;-6.216;2023-04-24T02:11:39;13.00;;;5.32;;
42590;SDS011;28218;53.342;-6.216;2023-04-24T02:14:07;11.27;;;5.32;;
42590;SDS011;28218;53.342;-6.216;2023-04-24T02:16:37;7.40;;;4.60;;
42590;SDS011;28218;53.342;-6.216;2023-04-24T02:19:06;12.32;;;5.90;;
42590;SDS011;28218;53.342;-6.216;2023-04-24T02:21:34;13.35;;;6.05;;
42590;SDS011;28218;53.342;-6.216;2023-04-24T02:24:03;13.68;;;5.20;;
42590;SDS011;28218;53.342;-6.216;2023-04-24T02:26:31;9.73;;;5.38;;
42590;SDS011;28218;53.342;-6.216;2023-04-24T02:28:59;12.43;;;5.30;;
42590;SDS011;28218;53.342;-6.216;2023-04-24T02:31:28;10.43;;;5.18;;
42590;SDS011;28218;53.342;-6.216;2023-04-24T02:33:57;8.90;;;5.28;;
42590;SDS011;28218;53.342;-6.216;2023-04-24T02:36:26;8.15;;;4.72;;
42590;SDS011;28218;53.342;-6.216;2023-04-24T02:38:54;10.40;;;4.68;;
42590;SDS011;28218;53.342;-6.216;2023-04-24T02:41:22;10.88;;;3.60;;
42590;SDS011;28218;53.342;-6.216;2023-04-24T02:43:50;12.43;;;4.28;;
42590;SDS011;28218;53.342;-6.216;2023-04-24T02:46:19;11.18;;;5.15;;
42590;SDS011;28218;53.342;-6.216;2023-04-24T02:48:48;10.82;;;3.42;;
42590;SDS011;28218;53.342;-6.216;2023-04-24T02:51:18;13.68;;;3.53;;
42590;SDS011;28218;53.342;-6.216;2023-04-24T02:53:46;6.88;;;3.20;;
42590;SDS011;28218;53.342;-6.216;2023-04-24T02:56:14;8.27;;;2.67;;
42590;SDS011;28218;53.342;-6.216;2023-04-24T02:58:42;5.60;;;2.05;;
42590;SDS011;28218;53.342;-6.216;2023-04-24T03:01:10;5.72;;;2.15;;
42590;SDS011;28218;53.342;-6.216;2023-04-24T03:03:39;6.03;;;2.05;;
42590;SDS011;28218;53.342;-6.216;2023-04-24T03:06:07;5.15;;;2.42;;
42590;SDS011;28218;53.342;-6.216;2023-04-24T03:08:37;6.15;;;2.40;;
42590;SDS011;28218;53.342;-6.216;2023-04-24T03:11:05;5.43;;;2.08;;
42590;SDS011;28218;53.342;-6.216;2023-04-24T03:13:34;8.80;;;2.80;;
42590;SDS011;28218;53.342;-6.216;2023-04-24T03:16:02;13.93;;;2.58;;
42590;SDS011;28218;53.342;-6.216;2023-04-24T03:18:30;8.23;;;2.67;;
42590;SDS011;28218;53.342;-6.216;2023-04-24T03:20:59;4.32;;;2.08;;
42590;SDS011;28218;53.342;-6.216;2023-04-24T03:23:27;7.25;;;2.20;;
42590;SDS011;28218;53.342;-6.216;2023-04-24T03:25:56;3.60;;;1.98;;
42590;SDS011;28218;53.342;-6.216;2023-04-24T03:28:25;7.00;;;2.53;;
42590;SDS011;28218;53.342;-6.216;2023-04-24T03:30:53;2.88;;;2.17;;
42590;SDS011;28218;53.342;-6.216;2023-04-24T03:33:21;6.88;;;1.95;;
42590;SDS011;28218;53.342;-6.216;2023-04-24T03:35:50;4.57;;;2.15;;
42590;SDS011;28218;53.342;-6.216;2023-04-24T03:38:18;3.80;;;1.73;;
42590;SDS011;28218;53.342;-6.216;2023-04-24T03:40:46;10.10;;;2.58;;
42590;SDS011;28218;53.342;-6.216;2023-04-24T03:43:16;5.88;;;1.95;;
42590;SDS011;28218;53.342;-6.216;2023-04-24T03:45:44;8.50;;;3.17;;
42590;SDS011;28218;53.342;-6.216;2023-04-24T03:48:13;3.78;;;1.92;;
42590;SDS011;28218;53.342;-6.216;2023-04-24T03:50:41;6.95;;;2.50;;
42590;SDS011;28218;53.342;-6.216;2023-04-24T03:53:09;8.27;;;2.58;;
42590;SDS011;28218;53.342;-6.216;2023-04-24T03:55:37;9.32;;;2.80;;
42590;SDS011;28218;53.342;-6.216;2023-04-24T03:58:05;6.10;;;3.33;;
42590;SDS011;28218;53.342;-6.216;2023-04-24T04:00:35;8.20;;;3.17;;
42590;SDS011;28218;53.342;-6.216;2023-04-24T04:03:04;5.90;;;2.75;;
42590;SDS011;28218;53.342;-6.216;2023-04-24T04:05:32;6.25;;;2.20;;
42590;SDS011;28218;53.342;-6.216;2023-04-24T04:08:00;6.20;;;1.80;;
42590;SDS011;28218;53.342;-6.216;2023-04-24T04:10:29;5.60;;;2.38;;
42590;SDS011;28218;53.342;-6.216;2023-04-24T04:12:57;5.97;;;1.92;;
42590;SDS011;28218;53.342;-6.216;2023-04-24T04:15:26;10.82;;;2.63;;
42590;SDS011;28218;53.342;-6.216;2023-04-24T04:17:56;8.82;;;2.15;;
42590;SDS011;28218;53.342;-6.216;2023-04-24T04:20:24;6.85;;;2.15;;
42590;SDS011;28218;53.342;-6.216;2023-04-24T04:22:52;8.57;;;2.78;;
42590;SDS011;28218;53.342;-6.216;2023-04-24T04:25:20;4.65;;;2.22;;
42590;SDS011;28218;53.342;-6.216;2023-04-24T04:27:49;5.70;;;1.98;;
42590;SDS011;28218;53.342;-6.216;2023-04-24T04:30:18;6.72;;;1.98;;
42590;SDS011;28218;53.342;-6.216;2023-04-24T04:32:47;8.70;;;2.22;;
42590;SDS011;28218;53.342;-6.216;2023-04-24T04:35:17;9.63;;;2.13;;
42590;SDS011;28218;53.342;-6.216;2023-04-24T04:37:48;6.43;;;2.15;;
42590;SDS011;28218;53.342;-6.216;2023-04-24T04:40:18;9.90;;;2.10;;
42590;SDS011;28218;53.342;-6.216;2023-04-24T04:42:46;9.18;;;2.25;;
42590;SDS011;28218;53.342;-6.216;2023-04-24T04:45:14;6.88;;;2.42;;
42590;SDS011;28218;53.342;-6.216;2023-04-24T04:47:43;10.82;;;3.30;;
42590;SDS011;28218;53.342;-6.216;2023-04-24T04:50:12;7.25;;;2.40;;
42590;SDS011;28218;53.342;-6.216;2023-04-24T04:52:41;11.07;;;2.53;;
42590;SDS011;28218;53.342;-6.216;2023-04-24T04:55:09;11.52;;;2.40;;
42590;SDS011;28218;53.342;-6.216;2023-04-24T04:57:39;12.45;;;2.25;;
42590;SDS011;28218;53.342;-6.216;2023-04-24T05:00:08;11.35;;;2.28;;
42590;SDS011;28218;53.342;-6.216;2023-04-24T05:02:38;10.75;;;2.60;;
42590;SDS011;28218;53.342;-6.216;2023-04-24T05:05:07;15.43;;;3.10;;
42590;SDS011;28218;53.342;-6.216;2023-04-24T05:07:36;21.92;;;2.42;;
42590;SDS011;28218;53.342;-6.216;2023-04-24T05:10:07;9.60;;;2.33;;
42590;SDS011;28218;53.342;-6.216;2023-04-24T05:12:35;10.15;;;1.90;;
42590;SDS011;28218;53.342;-6.216;2023-04-24T05:15:06;15.85;;;2.90;;
42590;SDS011;28218;53.342;-6.216;2023-04-24T05:17:35;17.48;;;2.90;;
42590;SDS011;28218;53.342;-6.216;2023-04-24T05:20:03;8.18;;;2.20;;
42590;SDS011;28218;53.342;-6.216;2023-04-24T05:22:33;12.38;;;1.85;;
42590;SDS011;28218;53.342;-6.216;2023-04-24T05:25:02;14.88;;;2.60;;
42590;SDS011;28218;53.342;-6.216;2023-04-24T05:27:32;9.82;;;2.25;;
42590;SDS011;28218;53.342;-6.216;2023-04-24T05:30:01;15.93;;;2.22;;
42590;SDS011;28218;53.342;-6.216;2023-04-24T05:32:29;15.68;;;3.38;;
42590;SDS011;28218;53.342;-6.216;2023-04-24T05:34:57;20.10;;;2.67;;
42590;SDS011;28218;53.342;-6.216;2023-04-24T05:37:25;12.43;;;2.40;;
42590;SDS011;28218;53.342;-6.216;2023-04-24T05:39:54;22.20;;;2.65;;
42590;SDS011;28218;53.342;-6.216;2023-04-24T05:42:22;14.98;;;2.90;;
42590;SDS011;28218;53.342;-6.216;2023-04-24T05:44:52;7.15;;;2.63;;
42590;SDS011;28218;53.342;-6.216;2023-04-24T05:47:23;12.52;;;2.40;;
42590;SDS011;28218;53.342;-6.216;2023-04-24T05:49:52;19.02;;;3.60;;
42590;SDS011;28218;53.342;-6.216;2023-04-24T05:52:21;17.55;;;2.95;;
42590;SDS011;28218;53.342;-6.216;2023-04-24T05:54:49;7.68;;;2.28;;
42590;SDS011;28218;53.342;-6.216;2023-04-24T05:57:17;17.63;;;2.45;;
42590;SDS011;28218;53.342;-6.216;2023-04-24T05:59:46;12.50;;;2.75;;
42590;SDS011;28218;53.342;-6.216;2023-04-24T06:02:16;8.77;;;2.20;;
42590;SDS011;28218;53.342;-6.216;2023-04-24T06:04:45;13.00;;;2.67;;
42590;SDS011;28218;53.342;-6.216;2023-04-24T06:07:13;11.95;;;2.50;;
42590;SDS011;28218;53.342;-6.216;2023-04-24T06:09:42;18.60;;;2.65;;
42590;SDS011;28218;53.342;-6.216;2023-04-24T06:12:10;19.58;;;3.45;;
42590;SDS011;28218;53.342;-6.216;2023-04-24T06:14:39;9.82;;;2.35;;
42590;SDS011;28218;53.342;-6.216;2023-04-24T06:17:07;17.52;;;2.60;;
42590;SDS011;28218;53.342;-6.216;2023-04-24T06:19:37;16.83;;;3.05;;
42590;SDS011;28218;53.342;-6.216;2023-04-24T06:22:05;21.25;;;3.30;;
42590;SDS011;28218;53.342;-6.216;2023-04-24T06:24:36;16.13;;;2.85;;
42590;SDS011;28218;53.342;-6.216;2023-04-24T06:27:04;11.02;;;3.80;;
42590;SDS011;28218;53.342;-6.216;2023-04-24T06:29:33;12.63;;;2.95;;
42590;SDS011;28218;53.342;-6.216;2023-04-24T06:32:01;12.45;;;2.75;;
42590;SDS011;28218;53.342;-6.216;2023-04-24T06:34:30;7.20;;;1.75;;
42590;SDS011;28218;53.342;-6.216;2023-04-24T06:37:00;6.50;;;1.40;;
42590;SDS011;28218;53.342;-6.216;2023-04-24T06:39:28;11.57;;;2.42;;
42590;SDS011;28218;53.342;-6.216;2023-04-24T06:41:57;8.75;;;2.30;;
42590;SDS011;28218;53.342;-6.216;2023-04-24T06:44:25;15.15;;;2.80;;
42590;SDS011;28218;53.342;-6.216;2023-04-24T06:46:53;9.27;;;2.40;;
42590;SDS011;28218;53.342;-6.216;2023-04-24T06:49:21;10.02;;;1.85;;
42590;SDS011;28218;53.342;-6.216;2023-04-24T06:51:50;7.88;;;1.60;;
42590;SDS011;28218;53.342;-6.216;2023-04-24T06:54:19;5.55;;;1.77;;
42590;SDS011;28218;53.342;-6.216;2023-04-24T06:56:48;8.15;;;1.80;;
42590;SDS011;28218;53.342;-6.216;2023-04-24T06:59:18;4.35;;;1.30;;
42590;SDS011;28218;53.342;-6.216;2023-04-24T07:01:46;5.10;;;1.80;;
42590;SDS011;28218;53.342;-6.216;2023-04-24T07:04:14;7.63;;;1.60;;
42590;SDS011;28218;53.342;-6.216;2023-04-24T07:06:43;2.80;;;1.25;;
42590;SDS011;28218;53.342;-6.216;2023-04-24T07:09:13;4.93;;;1.60;;
42590;SDS011;28218;53.342;-6.216;2023-04-24T07:11:44;4.90;;;1.40;;
42590;SDS011;28218;53.342;-6.216;2023-04-24T07:14:12;3.78;;;1.30;;
42590;SDS011;28218;53.342;-6.216;2023-04-24T07:16:41;9.70;;;3.22;;
42590;SDS011;28218;53.342;-6.216;2023-04-24T07:19:09;7.18;;;2.22;;
42590;SDS011;28218;53.342;-6.216;2023-04-24T07:21:38;11.32;;;3.53;;
42590;SDS011;28218;53.342;-6.216;2023-04-24T07:24:06;12.50;;;2.42;;
42590;SDS011;28218;53.342;-6.216;2023-04-24T07:26:37;9.40;;;2.83;;
42590;SDS011;28218;53.342;-6.216;2023-04-24T07:29:08;10.52;;;2.35;;
42590;SDS011;28218;53.342;-6.216;2023-04-24T07:31:36;7.45;;;1.70;;
42590;SDS011;28218;53.342;-6.216;2023-04-24T07:34:04;10.73;;;2.67;;
42590;SDS011;28218;53.342;-6.216;2023-04-24T07:36:32;9.70;;;2.13;;
42590;SDS011;28218;53.342;-6.216;2023-04-24T07:39:00;5.82;;;1.40;;
42590;SDS011;28218;53.342;-6.216;2023-04-24T07:41:29;10.93;;;2.65;;
42590;SDS011;28218;53.342;-6.216;2023-04-24T07:43:57;9.45;;;2.10;;
42590;SDS011;28218;53.342;-6.216;2023-04-24T07:46:28;15.60;;;2.20;;
42590;SDS011;28218;53.342;-6.216;2023-04-24T07:48:58;4.85;;;1.63;;
42590;SDS011;28218;53.342;-6.216;2023-04-24T07:51:39;8.70;;;1.60;;
42590;SDS011;28218;53.342;-6.216;2023-04-24T07:54:08;7.03;;;2.53;;
42590;SDS011;28218;53.342;-6.216;2023-04-24T07:56:36;6.25;;;1.70;;
42590;SDS011;28218;53.342;-6.216;2023-04-24T07:59:05;11.10;;;1.77;;
42590;SDS011;28218;53.342;-6.216;2023-04-24T08:01:35;11.52;;;1.95;;
42590;SDS011;28218;53.342;-6.216;2023-04-24T08:04:03;8.30;;;1.98;;
42590;SDS011;28218;53.342;-6.216;2023-04-24T08:06:32;5.35;;;1.58;;
42590;SDS011;28218;53.342;-6.216;2023-04-24T08:09:01;10.98;;;2.15;;
42590;SDS011;28218;53.342;-6.216;2023-04-24T08:11:30;16.65;;;3.30;;
42590;SDS011;28218;53.342;-6.216;2023-04-24T08:13:59;11.02;;;1.98;;
42590;SDS011;28218;53.342;-6.216;2023-04-24T08:16:27;7.40;;;1.88;;
42590;SDS011;28218;53.342;-6.216;2023-04-24T08:18:57;5.97;;;1.63;;
42590;SDS011;28218;53.342;-6.216;2023-04-24T08:21:25;7.03;;;1.95;;
42590;SDS011;28218;53.342;-6.216;2023-04-24T08:23:54;8.52;;;2.40;;
42590;SDS011;28218;53.342;-6.216;2023-04-24T08:26:22;8.13;;;2.20;;
42590;SDS011;28218;53.342;-6.216;2023-04-24T08:28:51;11.38;;;2.08;;
42590;SDS011;28218;53.342;-6.216;2023-04-24T08:31:19;5.60;;;2.25;;
42590;SDS011;28218;53.342;-6.216;2023-04-24T08:33:49;10.68;;;2.38;;
42590;SDS011;28218;53.342;-6.216;2023-04-24T08:36:18;7.60;;;1.90;;
42590;SDS011;28218;53.342;-6.216;2023-04-24T08:38:47;6.82;;;2.00;;
42590;SDS011;28218;53.342;-6.216;2023-04-24T08:41:15;9.80;;;1.98;;
42590;SDS011;28218;53.342;-6.216;2023-04-24T08:43:45;3.22;;;1.05;;
42590;SDS011;28218;53.342;-6.216;2023-04-24T08:46:15;7.00;;;2.25;;
42590;SDS011;28218;53.342;-6.216;2023-04-24T08:48:44;8.38;;;1.60;;
42590;SDS011;28218;53.342;-6.216;2023-04-24T08:51:12;5.30;;;1.98;;
42590;SDS011;28218;53.342;-6.216;2023-04-24T08:53:42;7.55;;;1.75;;
42590;SDS011;28218;53.342;-6.216;2023-04-24T08:56:12;3.42;;;1.17;;
42590;SDS011;28218;53.342;-6.216;2023-04-24T08:58:41;5.38;;;1.60;;
42590;SDS011;28218;53.342;-6.216;2023-04-24T09:01:11;5.75;;;1.42;;
42590;SDS011;28218;53.342;-6.216;2023-04-24T09:03:40;7.88;;;1.70;;
42590;SDS011;28218;53.342;-6.216;2023-04-24T09:06:09;10.77;;;2.03;;
42590;SDS011;28218;53.342;-6.216;2023-04-24T09:08:38;6.43;;;2.05;;
42590;SDS011;28218;53.342;-6.216;2023-04-24T09:11:10;8.57;;;1.75;;
42590;SDS011;28218;53.342;-6.216;2023-04-24T09:13:39;10.43;;;2.00;;
42590;SDS011;28218;53.342;-6.216;2023-04-24T09:16:08;7.13;;;1.80;;
42590;SDS011;28218;53.342;-6.216;2023-04-24T09:18:36;10.05;;;1.60;;
42590;SDS011;28218;53.342;-6.216;2023-04-24T09:21:06;9.95;;;2.80;;
42590;SDS011;28218;53.342;-6.216;2023-04-24T09:23:36;2.90;;;1.25;;
42590;SDS011;28218;53.342;-6.216;2023-04-24T09:26:05;3.58;;;1.40;;
42590;SDS011;28218;53.342;-6.216;2023-04-24T09:28:36;6.82;;;2.13;;
42590;SDS011;28218;53.342;-6.216;2023-04-24T09:31:07;7.25;;;1.63;;
42590;SDS011;28218;53.342;-6.216;2023-04-24T09:36:05;6.38;;;1.45;;
42590;SDS011;28218;53.342;-6.216;2023-04-24T09:38:34;9.75;;;2.10;;
42590;SDS011;28218;53.342;-6.216;2023-04-24T09:41:04;5.57;;;1.60;;
42590;SDS011;28218;53.342;-6.216;2023-04-24T09:43:34;9.80;;;1.77;;
42590;SDS011;28218;53.342;-6.216;2023-04-24T09:46:04;9.50;;;1.60;;
42590;SDS011;28218;53.342;-6.216;2023-04-24T09:48:34;5.28;;;1.52;;
42590;SDS011;28218;53.342;-6.216;2023-04-24T09:51:05;4.82;;;1.50;;
42590;SDS011;28218;53.342;-6.216;2023-04-24T09:53:37;7.63;;;1.55;;
42590;SDS011;28218;53.342;-6.216;2023-04-24T09:56:07;10.77;;;2.35;;
42590;SDS011;28218;53.342;-6.216;2023-04-24T09:58:37;4.47;;;1.88;;
42590;SDS011;28218;53.342;-6.216;2023-04-24T10:01:06;5.82;;;1.90;;
42590;SDS011;28218;53.342;-6.216;2023-04-24T10:03:34;5.47;;;2.28;;
42590;SDS011;28218;53.342;-6.216;2023-04-24T10:06:03;11.98;;;3.33;;
42590;SDS011;28218;53.342;-6.216;2023-04-24T10:08:36;3.90;;;1.30;;
42590;SDS011;28218;53.342;-6.216;2023-04-24T10:11:04;5.90;;;1.27;;
42590;SDS011;28218;53.342;-6.216;2023-04-24T10:13:34;4.30;;;1.45;;
42590;SDS011;28218;53.342;-6.216;2023-04-24T10:16:05;12.90;;;1.85;;
42590;SDS011;28218;53.342;-6.216;2023-04-24T10:18:34;7.53;;;1.33;;
42590;SDS011;28218;53.342;-6.216;2023-04-24T10:21:03;5.20;;;1.85;;
42590;SDS011;28218;53.342;-6.216;2023-04-24T10:23:31;9.88;;;2.00;;
42590;SDS011;28218;53.342;-6.216;2023-04-24T10:26:00;5.00;;;2.25;;
42590;SDS011;28218;53.342;-6.216;2023-04-24T10:28:28;7.43;;;2.17;;
42590;SDS011;28218;53.342;-6.216;2023-04-24T10:30:59;10.93;;;2.33;;
42590;SDS011;28218;53.342;-6.216;2023-04-24T10:33:29;7.03;;;1.50;;
42590;SDS011;28218;53.342;-6.216;2023-04-24T10:35:58;4.65;;;1.88;;
42590;SDS011;28218;53.342;-6.216;2023-04-24T10:38:27;7.22;;;1.58;;
42590;SDS011;28218;53.342;-6.216;2023-04-24T10:41:06;5.90;;;1.80;;
42590;SDS011;28218;53.342;-6.216;2023-04-24T10:43:39;7.03;;;1.92;;
42590;SDS011;28218;53.342;-6.216;2023-04-24T10:46:09;4.70;;;1.90;;
42590;SDS011;28218;53.342;-6.216;2023-04-24T10:48:41;3.70;;;1.33;;
42590;SDS011;28218;53.342;-6.216;2023-04-24T10:51:11;9.75;;;1.85;;
42590;SDS011;28218;53.342;-6.216;2023-04-24T10:53:40;3.25;;;1.48;;
42590;SDS011;28218;53.342;-6.216;2023-04-24T10:56:09;5.82;;;1.45;;
42590;SDS011;28218;53.342;-6.216;2023-04-24T10:58:38;6.45;;;1.58;;
42590;SDS011;28218;53.342;-6.216;2023-04-24T11:01:24;10.02;;;1.80;;
42590;SDS011;28218;53.342;-6.216;2023-04-24T11:03:54;6.93;;;1.70;;
42590;SDS011;28218;53.342;-6.216;2023-04-24T11:06:30;9.32;;;2.20;;
42590;SDS011;28218;53.342;-6.216;2023-04-24T11:09:03;12.43;;;2.50;;
42590;SDS011;28218;53.342;-6.216;2023-04-24T11:11:32;8.63;;;2.13;;
42590;SDS011;28218;53.342;-6.216;2023-04-24T11:14:05;8.55;;;2.45;;
42590;SDS011;28218;53.342;-6.216;2023-04-24T11:16:37;10.07;;;1.75;;
42590;SDS011;28218;53.342;-6.216;2023-04-24T11:19:17;7.68;;;1.90;;
42590;SDS011;28218;53.342;-6.216;2023-04-24T11:21:49;11.38;;;2.15;;
42590;SDS011;28218;53.342;-6.216;2023-04-24T11:24:26;2.88;;;1.35;;
42590;SDS011;28218;53.342;-6.216;2023-04-24T11:26:58;7.80;;;2.40;;
42590;SDS011;28218;53.342;-6.216;2023-04-24T11:29:41;12.65;;;1.98;;
42590;SDS011;28218;53.342;-6.216;2023-04-24T11:34:59;9.15;;;2.30;;
42590;SDS011;28218;53.342;-6.216;2023-04-24T11:37:29;7.25;;;2.20;;
42590;SDS011;28218;53.342;-6.216;2023-04-24T11:40:03;8.25;;;1.45;;
42590;SDS011;28218;53.342;-6.216;2023-04-24T11:42:33;7.65;;;1.63;;
42590;SDS011;28218;53.342;-6.216;2023-04-24T11:45:06;4.30;;;1.75;;
42590;SDS011;28218;53.342;-6.216;2023-04-24T11:47:37;18.73;;;2.58;;
42590;SDS011;28218;53.342;-6.216;2023-04-24T11:50:06;11.80;;;2.63;;
42590;SDS011;28218;53.342;-6.216;2023-04-24T11:52:36;10.63;;;2.33;;
42590;SDS011;28218;53.342;-6.216;2023-04-24T11:55:06;6.85;;;2.00;;
42590;SDS011;28218;53.342;-6.216;2023-04-24T11:57:36;5.30;;;1.77;;
42590;SDS011;28218;53.342;-6.216;2023-04-24T12:00:04;8.63;;;1.90;;
42590;SDS011;28218;53.342;-6.216;2023-04-24T12:02:36;14.55;;;2.08;;
42590;SDS011;28218;53.342;-6.216;2023-04-24T12:05:06;18.87;;;2.23;;
42590;SDS011;28218;53.342;-6.216;2023-04-24T12:07:39;12.38;;;2.15;;
42590;SDS011;28218;53.342;-6.216;2023-04-24T12:10:09;6.85;;;2.10;;
42590;SDS011;28218;53.342;-6.216;2023-04-24T12:12:38;5.50;;;1.75;;
42590;SDS011;28218;53.342;-6.216;2023-04-24T12:15:06;15.07;;;1.92;;
42590;SDS011;28218;53.342;-6.216;2023-04-24T12:17:40;13.00;;;2.30;;
42590;SDS011;28218;53.342;-6.216;2023-04-24T12:20:09;6.82;;;1.83;;
42590;SDS011;28218;53.342;-6.216;2023-04-24T12:22:48;21.90;;;3.08;;
42590;SDS011;28218;53.342;-6.216;2023-04-24T12:25:20;6.22;;;1.77;;
42590;SDS011;28218;53.342;-6.216;2023-04-24T12:27:52;6.82;;;2.10;;
42590;SDS011;28218;53.342;-6.216;2023-04-24T12:30:26;14.60;;;2.33;;
42590;SDS011;28218;53.342;-6.216;2023-04-24T12:32:58;12.48;;;1.70;;
42590;SDS011;28218;53.342;-6.216;2023-04-24T12:35:29;9.45;;;1.92;;
42590;SDS011;28218;53.342;-6.216;2023-04-24T12:38:05;10.90;;;1.77;;
42590;SDS011;28218;53.342;-6.216;2023-04-24T12:40:34;9.68;;;1.92;;
42590;SDS011;28218;53.342;-6.216;2023-04-24T12:43:12;5.53;;;1.60;;
42590;SDS011;28218;53.342;-6.216;2023-04-24T12:45:42;6.25;;;2.00;;
42590;SDS011;28218;53.342;-6.216;2023-04-24T12:48:12;10.20;;;2.05;;
42590;SDS011;28218;53.342;-6.216;2023-04-24T12:50:41;6.80;;;2.55;;
42590;SDS011;28218;53.342;-6.216;2023-04-24T12:53:12;8.82;;;1.52;;
42590;SDS011;28218;53.342;-6.216;2023-04-24T12:55:41;11.48;;;2.35;;
42590;SDS011;28218;53.342;-6.216;2023-04-24T12:58:10;7.78;;;2.55;;
42590;SDS011;28218;53.342;-6.216;2023-04-24T13:00:38;7.32;;;2.90;;
42590;SDS011;28218;53.342;-6.216;2023-04-24T13:03:10;8.90;;;2.08;;
42590;SDS011;28218;53.342;-6.216;2023-04-24T13:05:40;14.13;;;2.40;;
42590;SDS011;28218;53.342;-6.216;2023-04-24T13:08:08;5.95;;;2.97;;
42590;SDS011;28218;53.342;-6.216;2023-04-24T13:10:36;6.97;;;2.05;;
42590;SDS011;28218;53.342;-6.216;2023-04-24T13:13:05;6.43;;;1.42;;
42590;SDS011;28218;53.342;-6.216;2023-04-24T13:15:33;7.70;;;2.03;;
42590;SDS011;28218;53.342;-6.216;2023-04-24T13:18:02;8.25;;;1.60;;
42590;SDS011;28218;53.342;-6.216;2023-04-24T13:20:31;12.60;;;2.00;;
42590;SDS011;28218;53.342;-6.216;2023-04-24T13:23:03;9.57;;;1.75;;
42590;SDS011;28218;53.342;-6.216;2023-04-24T13:25:35;10.10;;;2.95;;
42590;SDS011;28218;53.342;-6.216;2023-04-24T13:28:03;9.13;;;2.33;;
42590;SDS011;28218;53.342;-6.216;2023-04-24T13:30:32;15.82;;;3.38;;
42590;SDS011;28218;53.342;-6.216;2023-04-24T13:33:00;7.07;;;1.90;;
42590;SDS011;28218;53.342;-6.216;2023-04-24T13:35:30;8.32;;;2.22;;
42590;SDS011;28218;53.342;-6.216;2023-04-24T13:37:59;19.85;;;2.67;;
42590;SDS011;28218;53.342;-6.216;2023-04-24T13:40:31;9.45;;;1.60;;
42590;SDS011;28218;53.342;-6.216;2023-04-24T13:42:59;6.95;;;1.52;;
42590;SDS011;28218;53.342;-6.216;2023-04-24T13:45:27;11.63;;;1.80;;
42590;SDS011;28218;53.342;-6.216;2023-04-24T13:47:56;8.23;;;1.45;;
42590;SDS011;28218;53.342;-6.216;2023-04-24T13:50:24;9.00;;;2.00;;
42590;SDS011;28218;53.342;-6.216;2023-04-24T13:52:53;7.07;;;1.80;;
42590;SDS011;28218;53.342;-6.216;2023-04-24T13:55:23;11.40;;;2.30;;
42590;SDS011;28218;53.342;-6.216;2023-04-24T13:57:52;7.43;;;1.73;;
42590;SDS011;28218;53.342;-6.216;2023-04-24T14:00:21;5.40;;;1.50;;
42590;SDS011;28218;53.342;-6.216;2023-04-24T14:02:50;11.55;;;2.22;;
42590;SDS011;28218;53.342;-6.216;2023-04-24T14:05:18;14.00;;;2.13;;
42590;SDS011;28218;53.342;-6.216;2023-04-24T14:07:48;13.48;;;2.80;;
42590;SDS011;28218;53.342;-6.216;2023-04-24T14:10:17;8.93;;;2.72;;
42590;SDS011;28218;53.342;-6.216;2023-04-24T14:12:45;15.88;;;1.92;;
42590;SDS011;28218;53.342;-6.216;2023-04-24T14:15:16;11.05;;;2.35;;
42590;SDS011;28218;53.342;-6.216;2023-04-24T14:17:44;12.45;;;1.83;;
42590;SDS011;28218;53.342;-6.216;2023-04-24T14:20:12;12.15;;;1.80;;
42590;SDS011;28218;53.342;-6.216;2023-04-24T14:22:41;10.35;;;1.63;;
42590;SDS011;28218;53.342;-6.216;2023-04-24T14:25:09;8.18;;;1.88;;
42590;SDS011;28218;53.342;-6.216;2023-04-24T14:27:37;10.75;;;1.45;;
42590;SDS011;28218;53.342;-6.216;2023-04-24T14:30:06;8.10;;;1.98;;
42590;SDS011;28218;53.342;-6.216;2023-04-24T14:32:37;10.90;;;2.70;;
42590;SDS011;28218;53.342;-6.216;2023-04-24T14:35:06;10.50;;;2.70;;
42590;SDS011;28218;53.342;-6.216;2023-04-24T14:37:35;6.90;;;1.77;;
42590;SDS011;28218;53.342;-6.216;2023-04-24T14:40:04;5.35;;;1.38;;
42590;SDS011;28218;53.342;-6.216;2023-04-24T14:42:54;11.32;;;2.90;;
42590;SDS011;28218;53.342;-6.216;2023-04-24T14:45:23;4.50;;;1.80;;
42590;SDS011;28218;53.342;-6.216;2023-04-24T14:47:53;4.65;;;1.75;;